KMIB

Minot AFB Airport

Minot, North Dakota, USA
METAR KMIB 180156Z AUTO 24012KT 10SM BKN110 01/M05 A2965 RMK AO2 SLP068 T00131050
Observed Flight Rules
Dec-18 @ 01:56 UTC (an hour ago) Visual Flight Rules
Wind Visibility Clouds
240° at 12 knots 10 miles
  • Broken at 11,000' AGL
Temperatures Readings
Current 1°C / 34°F
Dewpoint -5°C / 23°F
Humidity 65%
Altimeter 29.65" Hg
Pressure 1006.8 hPa
Elevation 508
METAR KMIB 180156Z AUTO 24012KT 10SM BKN110 01/M05 A2965 RMK AO2 SLP068 T00131050
Observed Flight Rules
Dec-18 @ 01:56 UTC
(an hour ago)
VFR
Wind Visibility
240° at 12 knots 10 miles
Clouds
  • Broken at 11,000' AGL
Temperature Dewpoint
1°C / 34°F -5°C / 23°F
Humidity Altimeter Pressure
65% 29.65" Hg 1006.8 hPa